Time;durP1;ratioP1;P1;durP2;ratioP2;P2;SDS_P1;SDS_P2;PMS_P1;PMS_P2;Temp;Humidity;BMP_temperature;BMP_pressure;BME280_temperature;BME280_humidity;BME280_pressure;Samples;Min_cycle;Max_cycle;Signal;HPM_P1;HPM_P2
2021/07/20 00:01:29;;;;;;;;;;;;;;;18.98;94.55;99429.94;4941692;28;19926;-64
2021/07/20 00:03:54;;;;;;;;;;;;;;;18.46;98.81;99427.72;4925312;28;19937;-64
2021/07/20 00:06:20;;;;;;;;;;;;;;;18.97;94.75;99430.00;4954116;28;19922;-64
2021/07/20 00:08:45;;;;;;;;;;;;;;;18.64;97.07;99436.25;4947370;29;19922;-65
2021/07/20 00:11:11;;;;;;;;;;;;;;;19.15;94.57;99430.69;4943738;29;19957;-64
2021/07/20 00:13:36;;;;;;;;;;;;;;;18.74;96.01;99424.34;4945431;28;19923;-64
2021/07/20 00:16:02;;;;;;;;;;;;;;;18.37;100.00;99428.25;4936929;29;19990;-65
2021/07/20 00:18:29;;;;;;;;;;;;;;;18.61;100.00;99431.25;4944337;28;19998;-65
2021/07/20 00:20:55;;;;;;;;;;;;;;;18.08;100.00;99419.50;4941436;28;20417;-65
2021/07/20 00:23:20;;;;;;;;;;;;;;;17.89;100.00;99428.34;4961947;28;19915;-64
2021/07/20 00:25:48;;;;;;;;;;;;;;;17.89;100.00;99428.34;4949203;28;20046;-64
2021/07/20 00:28:14;;;;;;;;;;;;;;;18.11;100.00;99424.50;4948817;28;19914;-64
2021/07/20 00:30:39;;;;;;;;;;;;;;;17.59;100.00;99427.38;4945549;28;19919;-64
2021/07/20 00:33:05;;;;;;;;;;;;;;;17.92;100.00;99428.16;4943778;28;20009;-64
2021/07/20 00:35:30;;;;;;;;;;;;;;;18.13;100.00;99423.53;4936104;29;20299;-64
2021/07/20 00:37:56;;;;;;;;;;;;;;;18.61;100.00;99410.38;4920756;29;19919;-64
2021/07/20 00:40:21;;;;;;;;;;;;;;;18.50;100.00;99423.19;4942414;28;19945;-64
2021/07/20 00:42:47;;;;;;;;;;;;;;;18.21;100.00;99423.09;4945086;28;19914;-65
2021/07/20 00:45:13;;;;;;;;;;;;;;;18.36;100.00;99419.63;4940279;28;19918;-65
2021/07/20 00:47:39;;;;;;;;;;;;;;;18.12;100.00;99426.22;4948064;28;19923;-64
2021/07/20 00:50:05;;;;;;;;;;;;;;;18.53;100.00;99423.00;4948478;28;20446;-65
2021/07/20 00:52:31;;;;;;;;;;;;;;;18.90;100.00;99420.88;4952206;28;19930;-65
2021/07/20 00:54:56;;;;;;;;;;;;;;;19.05;100.00;99422.56;4945316;29;19915;-65
2021/07/20 00:57:22;;;;;;;;;;;;;;;19.28;100.00;99420.34;4941940;29;19938;-64
2021/07/20 00:59:47;;;;;;;;;;;;;;;19.00;99.61;99416.78;4953411;28;20041;-65
2021/07/20 01:02:13;;;;;;;;;;;;;;;19.13;100.00;99415.09;4930337;28;20017;-64
2021/07/20 01:04:39;;;;;;;;;;;;;;;19.26;99.74;99415.19;4939931;28;20374;-64
2021/07/20 01:07:04;;;;;;;;;;;;;;;18.94;100.00;99417.16;4949938;29;19915;-65
2021/07/20 01:09:30;;;;;;;;;;;;;;;18.98;100.00;99413.44;4942808;28;19915;-65
2021/07/20 01:11:55;;;;;;;;;;;;;;;18.93;94.08;99411.09;4941340;28;19922;-64
2021/07/20 01:14:21;;;;;;;;;;;;;;;18.86;100.00;99409.78;4935340;29;19919;-65
2021/07/20 01:16:47;;;;;;;;;;;;;;;19.07;100.00;99415.50;4961458;28;19921;-64
2021/07/20 01:19:14;;;;;;;;;;;;;;;19.46;100.00;99411.38;4947200;28;20005;-64
2021/07/20 01:21:40;;;;;;;;;;;;;;;19.61;100.00;99418.25;4942720;29;20500;-65
2021/07/20 01:24:06;;;;;;;;;;;;;;;19.64;99.69;99407.59;4945007;29;19915;-64
2021/07/20 01:26:31;;;;;;;;;;;;;;;18.74;100.00;99416.53;4952623;28;19946;-64
2021/07/20 01:28:57;;;;;;;;;;;;;;;18.06;100.00;99419.56;4936070;28;19965;-65
2021/07/20 01:31:24;;;;;;;;;;;;;;;17.78;100.00;99415.03;4927330;29;19921;-65
2021/07/20 01:33:51;;;;;;;;;;;;;;;18.11;100.00;99422.78;4942221;28;19925;-64
2021/07/20 01:36:17;;;;;;;;;;;;;;;18.71;100.00;99416.72;4951668;28;19961;-64
2021/07/20 01:38:43;;;;;;;;;;;;;;;19.06;100.00;99416.41;4942622;29;19919;-64
2021/07/20 01:41:10;;;;;;;;;;;;;;;19.08;100.00;99422.38;4964080;28;19915;-64
2021/07/20 01:43:36;;;;;;;;;;;;;;;18.83;100.00;99416.94;4928601;29;19974;-65
2021/07/20 01:46:02;;;;;;;;;;;;;;;18.64;100.00;99415.41;4952757;28;19914;-64
2021/07/20 01:48:29;;;;;;;;;;;;;;;18.55;100.00;99418.53;4927619;29;19989;-65
2021/07/20 01:50:54;;;;;;;;;;;;;;;19.06;100.00;99411.19;4932232;28;19915;-65
2021/07/20 01:53:20;;;;;;;;;;;;;;;18.70;100.00;99404.59;4930178;29;20010;-64
2021/07/20 01:55:45;;;;;;;;;;;;;;;18.72;100.00;99415.78;4941553;29;19914;-65
2021/07/20 01:58:10;;;;;;;;;;;;;;;19.07;100.00;99414.63;4944764;28;19965;-64
2021/07/20 02:00:36;;;;;;;;;;;;;;;19.39;100.00;99407.47;4949533;28;19965;-65
2021/07/20 02:03:14;;;;;;;;;;;;;;;19.40;100.00;99409.13;4939286;28;20002;-64
2021/07/20 02:08:29;;;;;;;;;;;;;;;18.19;100.00;99414.50;4952546;29;20395;-64
2021/07/20 02:10:57;;;;;;;;;;;;;;;18.86;100.00;99408.94;4947606;29;20033;-64
2021/07/20 02:13:22;;;;;;;;;;;;;;;19.30;100.00;99410.63;4949084;28;19922;-64
2021/07/20 02:15:48;;;;;;;;;;;;;;;19.36;98.11;99412.84;4934878;28;19943;-64
2021/07/20 02:18:13;;;;;;;;;;;;;;;19.37;100.00;99414.53;4949162;29;20349;-65
2021/07/20 02:20:41;;;;;;;;;;;;;;;19.20;100.00;99419.03;4918654;29;19974;-64
2021/07/20 02:23:07;;;;;;;;;;;;;;;19.27;97.89;99416.03;4937317;28;19915;-64
2021/07/20 02:25:32;;;;;;;;;;;;;;;19.38;97.54;99408.38;4939466;29;19914;-64
2021/07/20 02:27:58;;;;;;;;;;;;;;;19.17;94.62;99407.94;4950966;28;20384;-64
2021/07/20 02:30:23;;;;;;;;;;;;;;;19.34;97.61;99412.97;4950504;28;19925;-64
2021/07/20 02:32:49;;;;;;;;;;;;;;;19.13;100.00;99417.69;4948365;28;19927;-64
2021/07/20 02:35:20;;;;;;;;;;;;;;;19.02;100.00;99413.16;4950935;28;20518;-64
2021/07/20 02:37:45;;;;;;;;;;;;;;;18.84;98.67;99411.66;4942872;28;19967;-64
2021/07/20 02:40:11;;;;;;;;;;;;;;;18.15;100.00;99416.47;4940941;28;19915;-64
2021/07/20 02:42:37;;;;;;;;;;;;;;;18.27;100.00;99412.31;4928858;29;19922;-64
2021/07/20 02:45:09;;;;;;;;;;;;;;;18.06;100.00;99418.72;4940713;28;20431;-65
2021/07/20 02:47:35;;;;;;;;;;;;;;;17.19;100.00;99427.72;4951808;28;19914;-64
2021/07/20 02:50:01;;;;;;;;;;;;;;;18.69;100.00;99415.97;4939198;28;19914;-65
2021/07/20 02:52:27;;;;;;;;;;;;;;;18.60;100.00;99412.13;4935410;28;20698;-64
2021/07/20 02:54:53;;;;;;;;;;;;;;;17.39;100.00;99423.25;4929165;29;19921;-64
2021/07/20 02:57:19;;;;;;;;;;;;;;;18.17;100.00;99421.56;4933680;28;20081;-64
2021/07/20 02:59:44;;;;;;;;;;;;;;;18.63;100.00;99416.31;4923724;29;19915;-64
2021/07/20 03:02:10;;;;;;;;;;;;;;;19.00;100.00;99416.78;4949093;28;20021;-63
2021/07/20 03:04:35;;;;;;;;;;;;;;;19.13;100.00;99419.47;4936709;28;20042;-64
2021/07/20 03:07:02;;;;;;;;;;;;;;;19.20;100.00;99411.22;4924849;29;19918;-64
2021/07/20 03:09:27;;;;;;;;;;;;;;;19.16;100.00;99420.16;4928191;29;19923;-64
2021/07/20 03:11:59;;;;;;;;;;;;;;;18.97;97.28;99416.97;4950275;28;19921;-64
2021/07/20 03:14:24;;;;;;;;;;;;;;;19.10;100.00;99420.50;4944205;28;19926;-64
2021/07/20 03:16:50;;;;;;;;;;;;;;;19.10;100.00;99417.06;4937931;28;19918;-63
2021/07/20 03:19:16;;;;;;;;;;;;;;;17.67;100.00;99427.78;4940452;29;19915;-64
2021/07/20 03:21:41;;;;;;;;;;;;;;;17.60;100.00;99416.03;4950157;28;19922;-64
2021/07/20 03:24:07;;;;;;;;;;;;;;;17.21;100.00;99419.84;4949665;28;20475;-64
2021/07/20 03:26:34;;;;;;;;;;;;;;;17.96;100.00;99428.84;4935529;29;19915;-64
2021/07/20 03:28:59;;;;;;;;;;;;;;;18.69;100.00;99413.34;4943402;29;19919;-64
2021/07/20 03:31:25;;;;;;;;;;;;;;;17.87;100.00;99414.53;4932212;28;19962;-63
2021/07/20 03:33:50;;;;;;;;;;;;;;;18.51;100.00;99414.44;4946278;28;19919;-64
2021/07/20 03:36:16;;;;;;;;;;;;;;;18.55;96.01;99411.56;4955987;28;20391;-64
2021/07/20 03:38:41;;;;;;;;;;;;;;;17.14;100.00;99409.75;4944642;29;19915;-64
2021/07/20 03:41:07;;;;;;;;;;;;;;;16.52;100.00;99419.81;4939025;28;19922;-64
2021/07/20 03:43:32;;;;;;;;;;;;;;;17.47;100.00;99421.03;4948003;28;19966;-64
2021/07/20 03:45:59;;;;;;;;;;;;;;;16.98;100.00;99419.28;4959941;28;20304;-64
2021/07/20 03:48:24;;;;;;;;;;;;;;;17.32;100.00;99427.94;4951334;28;19919;-63
2021/07/20 03:50:51;;;;;;;;;;;;;;;18.14;100.00;99421.75;4941710;28;19919;-63
2021/07/20 03:53:17;;;;;;;;;;;;;;;18.56;100.00;99412.38;4950960;28;19961;-64
2021/07/20 03:55:45;;;;;;;;;;;;;;;18.54;100.00;99420.31;4947819;28;20373;-64
2021/07/20 03:58:12;;;;;;;;;;;;;;;18.37;100.00;99418.66;4949204;28;20048;-64
2021/07/20 04:00:37;;;;;;;;;;;;;;;18.07;100.00;99430.84;4945006;28;19914;-64
2021/07/20 04:03:21;;;;;;;;;;;;;;;18.68;100.00;99416.91;4950910;28;19938;-64
2021/07/20 04:05:47;;;;;;;;;;;;;;;18.69;97.31;99413.34;4949564;28;20010;-64
2021/07/20 04:08:14;;;;;;;;;;;;;;;18.74;100.00;99421.75;4950095;28;20040;-64
2021/07/20 04:10:39;;;;;;;;;;;;;;;18.94;100.00;99417.16;4945781;29;19941;-64
2021/07/20 04:13:05;;;;;;;;;;;;;;;18.59;97.89;99425.28;4934548;29;19919;-64
2021/07/20 04:15:31;;;;;;;;;;;;;;;18.46;100.00;99425.13;4940405;29;19953;-64
2021/07/20 04:17:57;;;;;;;;;;;;;;;18.94;95.91;99428.44;4939545;28;20013;-64
2021/07/20 04:20:22;;;;;;;;;;;;;;;18.74;96.80;99426.97;4946681;29;20009;-64
2021/07/20 04:22:48;;;;;;;;;;;;;;;18.36;100.00;99429.22;4945528;29;19918;-64
2021/07/20 04:25:13;;;;;;;;;;;;;;;18.84;100.00;99436.88;4948737;28;19981;-64
2021/07/20 04:27:39;;;;;;;;;;;;;;;19.03;98.58;99429.66;4947513;28;19926;-64
2021/07/20 04:30:06;;;;;;;;;;;;;;;19.15;98.61;99434.13;4954019;28;20305;-64
2021/07/20 04:32:32;;;;;;;;;;;;;;;19.14;97.01;99432.47;4952193;28;19915;-64
2021/07/20 04:34:57;;;;;;;;;;;;;;;19.21;99.19;99427.69;4954299;28;19914;-64
2021/07/20 04:37:23;;;;;;;;;;;;;;;19.20;98.95;99433.84;4954860;29;20446;-64
2021/07/20 04:39:48;;;;;;;;;;;;;;;19.15;98.77;99431.50;4957301;28;19933;-64
2021/07/20 04:42:14;;;;;;;;;;;;;;;19.13;100.00;99427.31;4950606;28;19938;-64
2021/07/20 04:44:39;;;;;;;;;;;;;;;19.23;100.00;99434.50;4950324;28;20012;-65
2021/07/20 04:47:05;;;;;;;;;;;;;;;19.33;100.00;99428.72;4938550;29;20001;-64
2021/07/20 04:49:30;;;;;;;;;;;;;;;19.33;98.99;99433.94;4935462;29;20407;-64
2021/07/20 04:51:56;;;;;;;;;;;;;;;19.33;100.00;99433.94;4958525;28;19921;-64
2021/07/20 04:54:21;;;;;;;;;;;;;;;19.07;100.00;99438.13;4953701;28;19922;-64
2021/07/20 04:56:47;;;;;;;;;;;;;;;19.37;100.00;99440.66;4945511;28;19978;-63
2021/07/20 04:59:12;;;;;;;;;;;;;;;19.52;100.00;99439.69;4955668;28;19918;-64
2021/07/20 05:01:38;;;;;;;;;;;;;;;19.55;100.00;99442.13;4950642;29;20447;-64
2021/07/20 05:04:04;;;;;;;;;;;;;;;18.94;100.00;99448.47;4947474;28;19973;-63
2021/07/20 05:06:30;;;;;;;;;;;;;;;18.21;100.00;99454.38;4953847;28;20372;-64
2021/07/20 05:08:55;;;;;;;;;;;;;;;18.33;100.00;99451.06;4931197;29;19969;-64
2021/07/20 05:11:21;;;;;;;;;;;;;;;18.03;100.00;99450.19;4952943;28;19921;-64
2021/07/20 05:13:46;;;;;;;;;;;;;;;17.87;100.00;99458.84;4935418;28;19919;-64
2021/07/20 05:16:12;;;;;;;;;;;;;;;17.91;100.00;99460.34;4948964;29;20436;-64
2021/07/20 05:18:38;;;;;;;;;;;;;;;17.26;100.00;99456.88;4952290;28;19969;-64
2021/07/20 05:21:03;;;;;;;;;;;;;;;18.08;100.00;99454.19;4919240;29;19962;-64
2021/07/20 05:23:29;;;;;;;;;;;;;;;18.84;100.00;99455.16;4946707;29;19919;-64
2021/07/20 05:25:55;;;;;;;;;;;;;;;17.39;100.00;99465.72;4947427;28;19954;-64
2021/07/20 05:28:23;;;;;;;;;;;;;;;17.68;100.00;99460.75;4943998;29;19994;-64
2021/07/20 05:30:50;;;;;;;;;;;;;;;18.51;100.00;99461.38;4950580;28;19942;-64
2021/07/20 05:33:19;;;;;;;;;;;;;;;17.89;100.00;99463.97;4949879;28;19972;-64
2021/07/20 05:35:45;;;;;;;;;;;;;;;17.45;100.00;99470.63;4949833;28;19914;-64
2021/07/20 05:38:11;;;;;;;;;;;;;;;18.55;100.00;99457.66;4953118;28;20284;-64
2021/07/20 05:40:36;;;;;;;;;;;;;;;17.68;100.00;99468.56;4932831;28;19926;-64
2021/07/20 05:43:01;;;;;;;;;;;;;;;17.53;100.00;99478.84;4953132;28;19914;-64
2021/07/20 05:45:27;;;;;;;;;;;;;;;17.49;100.00;99477.34;4943775;28;20404;-64
2021/07/20 05:47:52;;;;;;;;;;;;;;;18.19;100.00;99464.03;4950017;29;20316;-64
2021/07/20 05:50:18;;;;;;;;;;;;;;;18.86;100.00;99471.56;4937054;28;19915;-64
2021/07/20 05:52:48;;;;;;;;;;;;;;;19.28;100.00;99473.41;4951196;28;19919;-64
2021/07/20 05:55:14;;;;;;;;;;;;;;;18.57;100.00;99469.69;4952910;29;19926;-64
2021/07/20 05:57:39;;;;;;;;;;;;;;;18.75;100.00;99470.41;4951044;28;19926;-64
2021/07/20 06:00:06;;;;;;;;;;;;;;;17.98;100.00;99479.09;4941952;28;20312;-64
2021/07/20 06:02:32;;;;;;;;;;;;;;;18.67;100.00;99477.81;4936669;28;19970;-64
2021/07/20 06:04:57;;;;;;;;;;;;;;;17.84;100.00;99484.25;4947439;28;20040;-64
2021/07/20 06:07:22;;;;;;;;;;;;;;;18.40;100.00;99480.22;4952354;28;19977;-64
2021/07/20 06:09:48;;;;;;;;;;;;;;;19.00;100.00;99469.84;4942353;28;20001;-64
2021/07/20 06:12:14;;;;;;;;;;;;;;;18.21;100.00;99480.44;4932699;29;20013;-64
2021/07/20 06:14:39;;;;;;;;;;;;;;;18.83;100.00;99485.63;4953112;28;19923;-64
2021/07/20 06:17:05;;;;;;;;;;;;;;;19.46;100.00;99481.06;4933901;28;19918;-64
2021/07/20 06:19:32;;;;;;;;;;;;;;;18.47;100.00;99493.78;4927677;29;19914;-64
2021/07/20 06:21:57;;;;;;;;;;;;;;;19.32;100.00;99495.78;4939500;29;19942;-64
2021/07/20 06:24:23;;;;;;;;;;;;;;;19.22;100.00;99495.47;4933062;29;19915;-64
2021/07/20 06:26:49;;;;;;;;;;;;;;;18.75;100.00;99501.72;4948323;28;19922;-64
2021/07/20 06:29:14;;;;;;;;;;;;;;;19.14;100.00;99492.50;4949785;28;19915;-64
2021/07/20 06:31:44;;;;;;;;;;;;;;;18.47;100.00;99499.81;4940752;28;19920;-64
2021/07/20 06:34:10;;;;;;;;;;;;;;;17.91;100.00;99502.06;4941497;28;20624;-64
2021/07/20 06:36:35;;;;;;;;;;;;;;;18.53;100.00;99504.69;4936544;29;19915;-65
2021/07/20 06:39:01;;;;;;;;;;;;;;;18.73;100.00;99503.56;4938324;29;20443;-64
2021/07/20 06:41:26;;;;;;;;;;;;;;;19.34;100.00;99498.28;4951550;28;19914;-64
2021/07/20 06:43:52;;;;;;;;;;;;;;;19.74;100.00;99501.13;4941110;28;19915;-64
2021/07/20 06:46:17;;;;;;;;;;;;;;;20.08;100.00;99504.25;4946601;28;19915;-65
2021/07/20 06:48:43;;;;;;;;;;;;;;;20.42;100.00;99502.94;4919028;29;19918;-64
2021/07/20 06:51:10;;;;;;;;;;;;;;;19.33;100.00;99497.47;4939050;28;20465;-65
2021/07/20 06:53:35;;;;;;;;;;;;;;;20.01;100.00;99499.41;4952354;28;19919;-65
2021/07/20 06:56:01;;;;;;;;;;;;;;;21.19;100.00;99497.84;4951452;28;19915;-65
2021/07/20 06:58:29;;;;;;;;;;;;;;;20.31;100.00;99506.22;4952566;28;19923;-64
2021/07/20 07:00:55;;;;;;;;;;;;;;;19.62;100.00;99507.91;4940953;29;19941;-65
2021/07/20 07:03:22;;;;;;;;;;;;;;;18.96;100.00;99509.25;4948395;28;19914;-64
2021/07/20 07:05:48;;;;;;;;;;;;;;;18.74;100.00;99515.66;4939063;28;19914;-64
2021/07/20 07:08:14;;;;;;;;;;;;;;;18.86;100.00;99513.31;4951016;28;20395;-64
2021/07/20 07:10:40;;;;;;;;;;;;;;;19.40;100.00;99511.00;4932611;28;19919;-65
2021/07/20 07:13:08;;;;;;;;;;;;;;;19.11;100.00;99510.09;4917392;28;19919;-64
2021/07/20 07:15:34;;;;;;;;;;;;;;;21.03;97.00;99508.56;4951766;28;19942;-64
2021/07/20 07:17:59;;;;;;;;;;;;;;;19.63;99.78;99513.03;4941820;28;19918;-64
2021/07/20 07:20:26;;;;;;;;;;;;;;;19.86;100.00;99510.81;4953841;28;19939;-64
2021/07/20 07:22:51;;;;;;;;;;;;;;;19.02;100.00;99514.09;4939006;28;19915;-65
2021/07/20 07:25:17;;;;;;;;;;;;;;;19.92;100.00;99520.91;4951060;28;19922;-65
2021/07/20 07:27:43;;;;;;;;;;;;;;;19.38;97.31;99516.28;4949881;28;19914;-64
2021/07/20 07:30:09;;;;;;;;;;;;;;;19.71;96.34;99511.78;4925828;29;19926;-64
2021/07/20 07:32:34;;;;;;;;;;;;;;;20.05;90.95;99513.97;4923415;28;19914;-64
2021/07/20 07:35:00;;;;;;;;;;;;;;;20.20;92.76;99514.75;4934935;29;19915;-64
2021/07/20 07:37:28;;;;;;;;;;;;;;;19.99;92.26;99513.50;4947510;28;20276;-64
2021/07/20 07:39:54;;;;;;;;;;;;;;;19.60;88.83;99526.28;4937292;28;20009;-64
2021/07/20 07:42:20;;;;;;;;;;;;;;;19.77;89.70;99519.22;4945349;28;20033;-65
2021/07/20 07:44:47;;;;;;;;;;;;;;;20.89;88.54;99519.94;4952191;28;20013;-64
2021/07/20 07:47:12;;;;;;;;;;;;;;;21.51;80.77;99524.53;4940540;28;20276;-64
2021/07/20 07:49:38;;;;;;;;;;;;;;;20.53;82.93;99526.63;4931707;28;19919;-62
2021/07/20 07:52:03;;;;;;;;;;;;;;;19.35;95.29;99526.09;4944186;29;19915;-64
2021/07/20 07:54:29;;;;;;;;;;;;;;;20.70;86.83;99522.09;4943732;28;19930;-64
2021/07/20 07:56:54;;;;;;;;;;;;;;;20.62;82.95;99520.00;4944565;29;20451;-64
2021/07/20 07:59:23;;;;;;;;;;;;;;;20.55;80.38;99521.28;4948832;28;20451;-64
2021/07/20 08:01:49;;;;;;;;;;;;;;;21.51;81.78;99524.53;4936870;28;19978;-64
2021/07/20 08:04:14;;;;;;;;;;;;;;;20.85;85.39;99527.16;4938427;28;20340;-64
2021/07/20 08:06:40;;;;;;;;;;;;;;;18.43;94.09;99533.97;4936905;28;19921;-65
2021/07/20 08:09:05;;;;;;;;;;;;;;;19.99;88.90;99527.41;4932081;28;20286;-65
2021/07/20 08:11:31;;;;;;;;;;;;;;;20.22;81.05;99527.75;4915891;28;19918;-65
2021/07/20 08:13:57;;;;;;;;;;;;;;;20.34;84.15;99532.19;4931618;28;19919;-64
2021/07/20 08:16:24;;;;;;;;;;;;;;;21.20;84.23;99529.19;4945237;29;19914;-64
2021/07/20 08:18:49;;;;;;;;;;;;;;;22.44;75.55;99530.22;4950527;29;19923;-65
2021/07/20 08:21:15;;;;;;;;;;;;;;;23.54;69.85;99515.00;4941053;29;19919;-65
2021/07/20 08:23:41;;;;;;;;;;;;;;;21.49;72.45;99519.38;4936261;29;19922;-64
2021/07/20 08:26:08;;;;;;;;;;;;;;;22.77;72.61;99528.66;4935193;28;20020;-64
2021/07/20 08:28:39;;;;;;;;;;;;;;;21.69;63.53;99530.25;4935273;29;20408;-65
2021/07/20 08:31:04;;;;;;;;;;;;;;;21.79;65.65;99525.22;4922099;29;19915;-65
2021/07/20 08:33:32;;;;;;;;;;;;;;;20.77;77.35;99526.81;4952659;28;19925;-65
2021/07/20 08:35:58;;;;;;;;;;;;;;;21.05;67.25;99533.69;4937564;28;20290;-65
2021/07/20 08:38:23;;;;;;;;;;;;;;;20.39;71.23;99535.38;4933260;28;19922;-64
2021/07/20 08:40:48;;;;;;;;;;;;;;;22.52;60.81;99527.84;4937878;29;19923;-64
2021/07/20 08:43:33;;;;;;;;;;;;;;;23.47;62.50;99524.31;4933991;29;19915;-64
2021/07/20 08:46:08;;;;;;;;;;;;;;;23.41;58.42;99524.78;4940916;28;19961;-65
2021/07/20 08:48:36;;;;;;;;;;;;;;;23.55;60.70;99525.38;4951711;28;20399;-65
2021/07/20 08:51:05;;;;;;;;;;;;;;;22.74;56.38;99526.28;4944601;28;20293;-65
2021/07/20 08:53:41;;;;;;;;;;;;;;;20.94;64.63;99525.72;4927650;29;19930;-65
2021/07/20 08:56:06;;;;;;;;;;;;;;;20.58;71.77;99535.03;4955412;28;19914;-64
2021/07/20 08:58:33;;;;;;;;;;;;;;;20.84;73.99;99532.50;4932455;28;19923;-64
2021/07/20 09:01:19;;;;;;;;;;;;;;;21.83;66.85;99535.41;4931736;29;20344;-64
2021/07/20 09:04:17;;;;;;;;;;;;;;;22.74;62.51;99534.16;4911985;28;19942;-65
2021/07/20 09:06:47;;;;;;;;;;;;;;;21.60;67.50;99544.84;4911858;29;19975;-65
2021/07/20 09:09:20;;;;;;;;;;;;;;;21.13;68.03;99540.19;4941285;28;19974;-64
2021/07/20 09:11:46;;;;;;;;;;;;;;;22.93;60.62;99538.88;4931016;29;19914;-64
2021/07/20 09:14:31;;;;;;;;;;;;;;;24.41;50.76;99541.47;4917917;29;19923;-65
2021/07/20 09:17:01;;;;;;;;;;;;;;;23.81;52.26;99538.31;4941558;28;20022;-65
2021/07/20 09:19:50;;;;;;;;;;;;;;;24.56;49.06;99537.63;4945944;28;19914;-65
2021/07/20 09:22:20;;;;;;;;;;;;;;;23.36;58.83;99544.38;4937165;28;19922;-65
2021/07/20 09:25:05;;;;;;;;;;;;;;;23.51;57.30;99546.78;4948442;28;19966;-65
2021/07/20 09:27:38;;;;;;;;;;;;;;;22.89;66.15;99556.63;4940887;28;19991;-65
2021/07/20 09:30:09;;;;;;;;;;;;;;;22.28;63.36;99548.00;4939488;28;19938;-64
2021/07/20 09:32:43;;;;;;;;;;;;;;;22.00;68.29;99552.53;4936962;28;19926;-64
2021/07/20 09:35:17;;;;;;;;;;;;;;;22.39;65.99;99548.06;4951154;28;19922;-65
2021/07/20 09:37:48;;;;;;;;;;;;;;;22.87;59.40;99547.19;4933838;29;20017;-65
2021/07/20 09:40:29;;;;;;;;;;;;;;;23.32;54.36;99550.81;4945146;28;20014;-65
2021/07/20 09:43:04;;;;;;;;;;;;;;;24.36;53.36;99548.91;4954996;28;19914;-65
2021/07/20 09:45:40;;;;;;;;;;;;;;;24.15;52.60;99549.66;4951452;28;20443;-64
2021/07/20 09:48:24;;;;;;;;;;;;;;;23.70;53.63;99541.78;4929381;29;19915;-64
2021/07/20 09:51:02;;;;;;;;;;;;;;;26.19;51.42;99550.22;4937273;29;19958;-65
2021/07/20 09:53:27;;;;;;;;;;;;;;;24.97;45.46;99546.50;4918529;29;19959;-64
2021/07/20 09:55:56;;;;;;;;;;;;;;;23.06;50.08;99550.19;4946433;28;19950;-64
2021/07/20 09:58:22;;;;;;;;;;;;;;;23.16;53.70;99547.69;4946298;28;19922;-64
2021/07/20 10:00:50;;;;;;;;;;;;;;;22.84;52.55;99548.28;4950788;28;19922;-65
2021/07/20 10:03:34;;;;;;;;;;;;;;;23.33;51.86;99538.50;4950737;28;20006;-64
2021/07/20 10:06:09;;;;;;;;;;;;;;;21.96;58.11;99545.00;4940228;28;19966;-65
2021/07/20 10:08:36;;;;;;;;;;;;;;;21.72;61.35;99544.00;4935851;28;20010;-64
2021/07/20 10:11:02;;;;;;;;;;;;;;;22.63;54.74;99542.00;4933536;28;19915;-65
2021/07/20 10:13:56;;;;;;;;;;;;;;;23.60;52.99;99546.06;4933430;28;19956;-64
2021/07/20 10:16:23;;;;;;;;;;;;;;;21.86;53.50;99547.44;4899545;28;19923;-64
2021/07/20 10:19:04;;;;;;;;;;;;;;;22.60;52.43;99540.41;4937410;29;19918;-65
2021/07/20 10:21:30;;;;;;;;;;;;;;;23.49;52.95;99541.66;4946140;28;19914;-64
2021/07/20 10:23:59;;;;;;;;;;;;;;;22.39;50.05;99545.44;4924900;29;19915;-65
2021/07/20 10:26:45;;;;;;;;;;;;;;;23.04;49.38;99543.38;4935891;28;19919;-65
2021/07/20 10:29:25;;;;;;;;;;;;;;;25.55;45.55;99539.97;4938931;29;20376;-64
2021/07/20 10:32:03;;;;;;;;;;;;;;;24.33;44.19;99542.06;4953099;28;19914;-65
2021/07/20 10:34:28;;;;;;;;;;;;;;;25.15;43.80;99540.69;4923530;29;19922;-64
2021/07/20 10:36:55;;;;;;;;;;;;;;;22.79;46.90;99545.16;4937970;29;20393;-65
2021/07/20 10:39:27;;;;;;;;;;;;;;;24.51;45.09;99542.41;4939581;29;19914;-65
2021/07/20 10:42:16;;;;;;;;;;;;;;;25.22;46.84;99532.16;4935562;29;19919;-64
2021/07/20 10:44:47;;;;;;;;;;;;;;;23.69;48.75;99545.34;4946110;29;20303;-65
2021/07/20 10:47:14;;;;;;;;;;;;;;;22.69;47.32;99549.41;4951462;28;19918;-66
2021/07/20 10:49:50;;;;;;;;;;;;;;;22.96;49.42;99547.34;4939759;28;19923;-66
2021/07/20 10:52:21;;;;;;;;;;;;;;;21.96;56.59;99548.47;4951253;28;19927;-66
2021/07/20 10:55:21;;;;;;;;;;;;;;;22.19;53.13;99546.84;4942451;28;19926;-65
2021/07/20 10:57:49;;;;;;;;;;;;;;;22.45;53.98;99547.63;4930811;28;19950;-65
2021/07/20 11:00:15;;;;;;;;;;;;;;;23.04;56.87;99548.63;4936881;28;20349;-65
2021/07/20 11:02:47;;;;;;;;;;;;;;;21.82;53.61;99543.34;4933253;28;19981;-65
2021/07/20 11:05:13;;;;;;;;;;;;;;;23.90;51.11;99537.63;4929221;29;19923;-66
2021/07/20 11:07:44;;;;;;;;;;;;;;;24.49;46.81;99538.22;4942172;28;19918;-65
2021/07/20 11:10:10;;;;;;;;;;;;;;;25.46;46.29;99528.41;4950684;28;20260;-65
2021/07/20 11:12:38;;;;;;;;;;;;;;;25.46;46.77;99533.69;4950895;28;19922;-66
2021/07/20 11:15:03;;;;;;;;;;;;;;;25.44;44.22;99531.16;4949956;28;19918;-65
2021/07/20 11:17:29;;;;;;;;;;;;;;;25.03;41.48;99530.22;4950449;29;19937;-66
2021/07/20 11:19:54;;;;;;;;;;;;;;;26.57;42.47;99529.28;4925010;28;19915;-66
2021/07/20 11:22:20;;;;;;;;;;;;;;;28.26;41.58;99519.63;4943314;28;20350;-65
2021/07/20 11:24:46;;;;;;;;;;;;;;;30.23;36.58;99526.22;4948676;28;19914;-66
2021/07/20 11:27:13;;;;;;;;;;;;;;;25.17;37.56;99536.13;4934876;28;20001;-66
2021/07/20 11:29:38;;;;;;;;;;;;;;;26.23;39.40;99527.03;4940036;29;19922;-66
2021/07/20 11:32:04;;;;;;;;;;;;;;;25.33;43.77;99525.16;4943596;28;19937;-66
2021/07/20 11:34:34;;;;;;;;;;;;;;;22.33;49.45;99538.84;4946467;28;19945;-66
2021/07/20 11:37:03;;;;;;;;;;;;;;;24.29;51.63;99524.00;4950546;28;20446;-66
2021/07/20 11:39:29;;;;;;;;;;;;;;;23.60;49.97;99525.03;4921530;28;19923;-65
2021/07/20 11:41:55;;;;;;;;;;;;;;;22.70;48.56;99527.47;4936096;28;19973;-66
2021/07/20 11:44:39;;;;;;;;;;;;;;;23.46;45.78;99520.00;4946226;28;20292;-65
2021/07/20 11:47:06;;;;;;;;;;;;;;;23.19;44.89;99526.41;4946851;29;19915;-65
2021/07/20 11:49:39;;;;;;;;;;;;;;;26.29;40.32;99518.53;4947034;28;19915;-65
2021/07/20 11:52:06;;;;;;;;;;;;;;;24.60;39.90;99520.59;4961505;28;19915;-65
2021/07/20 11:54:50;;;;;;;;;;;;;;;24.16;40.32;99525.00;4939760;28;20372;-66
2021/07/20 11:57:43;;;;;;;;;;;;;;;24.94;41.60;99524.88;4967202;28;19922;-65
2021/07/20 12:00:24;;;;;;;;;;;;;;;24.35;41.26;99523.53;4949359;29;19922;-65
2021/07/20 12:02:59;;;;;;;;;;;;;;;26.68;40.34;99522.06;4950109;28;20368;-65
2021/07/20 12:05:31;;;;;;;;;;;;;;;26.13;39.72;99521.72;4962247;28;19922;-65
2021/07/20 12:07:57;;;;;;;;;;;;;;;23.83;43.67;99520.63;4944188;29;19914;-65
2021/07/20 12:10:35;;;;;;;;;;;;;;;23.98;43.89;99518.59;4950650;29;20368;-65
2021/07/20 12:13:05;;;;;;;;;;;;;;;26.57;40.00;99524.00;4946820;28;20348;-65
2021/07/20 12:15:31;;;;;;;;;;;;;;;28.49;36.52;99516.56;4947451;29;19925;-66
2021/07/20 12:17:57;;;;;;;;;;;;;;;28.46;35.32;99509.72;4967523;28;19919;-65
2021/07/20 12:20:23;;;;;;;;;;;;;;;25.46;38.92;99512.59;4951258;28;20138;-65
2021/07/20 12:22:52;;;;;;;;;;;;;;;23.14;43.43;99518.06;4945381;28;20001;-65
2021/07/20 12:25:17;;;;;;;;;;;;;;;23.19;44.62;99515.91;4940449;28;19942;-66
2021/07/20 12:27:44;;;;;;;;;;;;;;;24.52;40.76;99501.97;4948993;28;19922;-65
2021/07/20 12:30:10;;;;;;;;;;;;;;;27.08;35.95;99505.19;4944685;28;19953;-66
2021/07/20 12:32:40;;;;;;;;;;;;;;;28.36;38.65;99504.50;4968035;28;19918;-66
2021/07/20 12:35:06;;;;;;;;;;;;;;;29.41;32.53;99502.00;4943188;28;19961;-66
2021/07/20 12:37:32;;;;;;;;;;;;;;;29.37;30.41;99503.31;4927539;29;19951;-66
2021/07/20 12:39:57;;;;;;;;;;;;;;;29.05;40.43;99504.75;4946634;28;19923;-66
2021/07/20 12:42:23;;;;;;;;;;;;;;;25.45;36.59;99517.03;4946709;28;19922;-66
2021/07/20 12:45:05;;;;;;;;;;;;;;;25.41;37.62;99518.25;4942309;28;19919;-66
2021/07/20 12:47:44;;;;;;;;;;;;;;;25.54;40.80;99514.56;4927235;28;19919;-65
2021/07/20 12:50:10;;;;;;;;;;;;;;;26.69;38.28;99517.63;4947298;28;20388;-66